createdAt,value
2023-04-22T00:02:13.117Z,7.10
2023-04-22T00:04:41.741Z,7.10
2023-04-22T00:07:08.595Z,7.20
2023-04-22T00:09:36.061Z,7.20
2023-04-22T00:12:02.928Z,7.20
2023-04-22T00:14:29.569Z,7.20
2023-04-22T00:16:56.191Z,7.10
2023-04-22T00:19:23.205Z,7.20
2023-04-22T00:21:50.156Z,7.20
2023-04-22T00:24:16.799Z,7.10
2023-04-22T00:26:43.418Z,7.10
2023-04-22T00:29:10.199Z,7.00
2023-04-22T00:31:36.826Z,7.10
2023-04-22T00:34:03.497Z,7.20
2023-04-22T00:36:31.370Z,7.20
2023-04-22T00:38:58.058Z,7.20
2023-04-22T00:41:25.002Z,7.20
2023-04-22T00:43:53.409Z,7.20
2023-04-22T00:46:20.814Z,7.20
2023-04-22T00:48:47.470Z,7.20
2023-04-22T00:51:14.120Z,7.20
2023-04-22T00:53:40.719Z,7.30
2023-04-22T00:56:08.105Z,7.30
2023-04-22T00:58:34.890Z,7.30
2023-04-22T01:01:02.168Z,7.30
2023-04-22T01:03:30.541Z,7.20
2023-04-22T01:05:58.214Z,7.20
2023-04-22T01:08:29.694Z,7.20
2023-04-22T01:10:57.454Z,7.30
2023-04-22T01:13:24.385Z,7.40
2023-04-22T01:15:53.056Z,7.40
2023-04-22T01:18:20.016Z,7.40
2023-04-22T01:20:46.668Z,7.50
2023-04-22T01:23:20.559Z,7.50
2023-04-22T01:25:48.276Z,7.60
2023-04-22T01:28:16.331Z,7.60
2023-04-22T01:30:43.795Z,7.60
2023-04-22T01:33:11.526Z,7.60
2023-04-22T01:35:38.727Z,7.70
2023-04-22T01:38:08.077Z,7.70
2023-04-22T01:40:35.042Z,7.60
2023-04-22T01:43:02.526Z,7.60
2023-04-22T01:45:29.736Z,7.60
2023-04-22T01:47:56.400Z,7.60
2023-04-22T01:50:23.450Z,7.60
2023-04-22T01:52:50.436Z,7.50
2023-04-22T01:55:17.114Z,7.60
2023-04-22T01:57:43.959Z,7.70
2023-04-22T02:00:11.169Z,7.80
2023-04-22T02:02:37.872Z,7.70
2023-04-22T02:05:07.032Z,7.50
2023-04-22T02:07:33.753Z,7.60
2023-04-22T02:10:01.435Z,7.50
2023-04-22T02:12:28.163Z,7.50
2023-04-22T02:14:54.741Z,7.60
2023-04-22T02:17:22.257Z,7.60
2023-04-22T02:19:48.923Z,7.60
2023-04-22T02:22:16.504Z,7.60
2023-04-22T02:24:43.258Z,7.60
2023-04-22T02:27:10.024Z,7.60
2023-04-22T02:29:36.692Z,7.70
2023-04-22T02:32:03.436Z,7.70
2023-04-22T02:34:30.191Z,7.70
2023-04-22T02:36:56.769Z,7.70
2023-04-22T02:39:23.424Z,7.70
2023-04-22T02:41:50.045Z,7.70
2023-04-22T02:44:16.626Z,7.70
2023-04-22T02:46:43.254Z,7.70
2023-04-22T02:49:09.898Z,7.70
2023-04-22T02:51:39.138Z,7.70
2023-04-22T02:54:05.792Z,7.80
2023-04-22T02:56:32.417Z,7.80
2023-04-22T02:58:59.013Z,7.80
2023-04-22T03:01:25.724Z,7.80
2023-04-22T03:03:52.583Z,7.70
2023-04-22T03:06:19.362Z,7.80
2023-04-22T03:08:46.878Z,7.80
2023-04-22T03:11:13.872Z,7.80
2023-04-22T03:13:40.646Z,7.80
2023-04-22T03:16:07.515Z,7.80
2023-04-22T03:18:34.162Z,7.70
2023-04-22T03:21:00.974Z,7.70
2023-04-22T03:23:27.578Z,7.80
2023-04-22T03:25:54.190Z,7.80
2023-04-22T03:28:20.769Z,7.80
2023-04-22T03:30:48.420Z,7.80
2023-04-22T03:33:15.175Z,7.90
2023-04-22T03:35:41.925Z,8.00
2023-04-22T03:38:08.545Z,8.00
2023-04-22T03:40:35.166Z,7.90
2023-04-22T03:43:03.517Z,7.90
2023-04-22T03:45:30.283Z,7.90
2023-04-22T03:47:56.980Z,7.90
2023-04-22T03:50:23.863Z,7.90
2023-04-22T03:52:50.922Z,7.90
2023-04-22T03:55:17.611Z,7.90
2023-04-22T03:57:44.199Z,7.90
2023-04-22T04:00:11.428Z,7.90
2023-04-22T04:02:38.347Z,7.90
2023-04-22T04:05:05.463Z,7.90
2023-04-22T04:07:32.328Z,8.00
2023-04-22T04:09:58.996Z,7.90
2023-04-22T04:12:25.611Z,7.90
2023-04-22T04:14:52.213Z,7.90
2023-04-22T04:17:18.933Z,8.00
2023-04-22T04:19:45.536Z,7.90
2023-04-22T04:22:12.194Z,7.90
2023-04-22T04:24:42.198Z,7.90
2023-04-22T04:27:09.045Z,7.80
2023-04-22T04:29:36.865Z,7.80
2023-04-22T04:32:04.896Z,7.80
2023-04-22T04:34:34.487Z,7.80
2023-04-22T04:37:01.277Z,7.80
2023-04-22T04:39:29.169Z,7.80
2023-04-22T04:41:58.482Z,7.80
2023-04-22T04:44:26.390Z,7.80
2023-04-22T04:46:54.693Z,7.80
2023-04-22T04:49:21.520Z,7.80
2023-04-22T04:51:48.238Z,7.80
2023-04-22T04:54:15.182Z,7.80
2023-04-22T04:56:41.948Z,7.90
2023-04-22T04:59:08.683Z,8.00
2023-04-22T05:01:35.707Z,7.90
2023-04-22T05:04:02.591Z,7.90
2023-04-22T05:06:29.552Z,7.90
2023-04-22T05:08:57.253Z,8.00
2023-04-22T05:11:23.974Z,8.00
2023-04-22T05:13:50.582Z,8.10
2023-04-22T05:16:17.271Z,8.10
2023-04-22T05:18:44.297Z,8.20
2023-04-22T05:21:10.906Z,8.30
2023-04-22T05:23:37.484Z,8.30
2023-04-22T05:26:04.197Z,8.30
2023-04-22T05:28:30.768Z,8.50
2023-04-22T05:30:57.764Z,8.60
2023-04-22T05:33:24.376Z,8.60
2023-04-22T05:35:52.254Z,8.80
2023-04-22T05:38:18.876Z,8.90
2023-04-22T05:40:45.550Z,8.90
2023-04-22T05:43:12.198Z,9.00
2023-04-22T05:45:39.037Z,9.00
2023-04-22T05:48:05.784Z,9.10
2023-04-22T05:50:32.557Z,9.20
2023-04-22T05:52:59.203Z,9.30
2023-04-22T05:55:25.843Z,9.30
2023-04-22T05:57:52.495Z,9.50
2023-04-22T06:00:19.274Z,9.70
2023-04-22T06:02:45.982Z,10.00
2023-04-22T06:05:13.144Z,10.30
2023-04-22T06:07:40.386Z,10.50
2023-04-22T06:10:07.810Z,10.70
2023-04-22T06:12:34.633Z,10.90
2023-04-22T06:15:01.279Z,11.20
2023-04-22T06:17:28.196Z,11.30
2023-04-22T06:19:54.979Z,11.30
2023-04-22T06:22:21.624Z,11.30
2023-04-22T06:24:48.411Z,11.30
2023-04-22T06:27:15.182Z,11.40
2023-04-22T06:29:41.957Z,11.50
2023-04-22T06:32:08.632Z,11.60
2023-04-22T06:34:35.351Z,11.80
2023-04-22T06:37:02.044Z,11.90
2023-04-22T06:39:28.621Z,12.00
2023-04-22T06:41:55.405Z,12.00
2023-04-22T06:44:22.344Z,12.10
2023-04-22T06:46:49.085Z,12.40
2023-04-22T06:49:15.766Z,12.90
2023-04-22T06:51:42.372Z,13.40
2023-04-22T06:54:09.288Z,14.20
2023-04-22T06:56:36.149Z,14.90
2023-04-22T06:59:02.842Z,15.30
2023-04-22T07:01:29.451Z,15.50
2023-04-22T07:03:56.189Z,15.80
2023-04-22T07:06:22.916Z,16.30
2023-04-22T07:08:49.549Z,17.00
2023-04-22T07:11:16.373Z,17.60
2023-04-22T07:13:42.942Z,17.70
2023-04-22T07:16:09.738Z,17.50
2023-04-22T07:18:36.825Z,17.70
2023-04-22T07:21:03.529Z,18.10
2023-04-22T07:23:30.234Z,18.40
2023-04-22T07:25:57.065Z,18.30
2023-04-22T07:28:23.693Z,18.50
2023-04-22T07:30:50.384Z,18.70
2023-04-22T07:33:16.998Z,18.70
2023-04-22T07:35:43.662Z,19.50
2023-04-22T07:38:12.124Z,20.10
2023-04-22T07:40:40.000Z,20.30
2023-04-22T07:43:06.645Z,20.80
2023-04-22T07:45:33.388Z,20.80
2023-04-22T07:48:00.234Z,21.60
2023-04-22T07:50:27.023Z,21.20
2023-04-22T07:52:53.669Z,21.30
2023-04-22T07:55:20.440Z,21.50
2023-04-22T07:57:47.129Z,21.40
2023-04-22T08:00:14.900Z,20.70
2023-04-22T08:02:42.108Z,20.40
2023-04-22T08:05:08.965Z,20.40
2023-04-22T08:07:35.636Z,20.50
2023-04-22T08:10:02.358Z,20.50
2023-04-22T08:12:29.037Z,20.60
2023-04-22T08:14:55.678Z,21.30
2023-04-22T08:17:22.823Z,21.50
2023-04-22T08:19:49.862Z,21.50
2023-04-22T08:22:18.484Z,21.40
2023-04-22T08:24:45.079Z,21.50
2023-04-22T08:27:11.725Z,21.30
2023-04-22T08:29:38.683Z,21.30
2023-04-22T08:32:05.730Z,21.60
2023-04-22T08:34:32.395Z,22.00
2023-04-22T08:36:59.107Z,22.30
2023-04-22T08:39:25.967Z,22.80
2023-04-22T08:41:53.927Z,23.10
2023-04-22T08:44:22.450Z,23.00
2023-04-22T08:46:49.657Z,23.40
2023-04-22T08:49:16.445Z,23.10
2023-04-22T08:51:44.128Z,22.60
2023-04-22T08:54:11.688Z,22.80
2023-04-22T08:56:44.137Z,22.60
2023-04-22T08:59:11.924Z,22.70
2023-04-22T09:01:40.857Z,22.50
2023-04-22T09:04:10.531Z,22.20
2023-04-22T09:06:38.800Z,22.00
2023-04-22T09:09:06.054Z,22.20
2023-04-22T09:11:33.392Z,22.20
2023-04-22T09:14:00.051Z,21.90
2023-04-22T09:16:26.781Z,22.00
2023-04-22T09:18:53.494Z,21.70
2023-04-22T09:21:20.141Z,21.50
2023-04-22T09:23:51.687Z,21.30
2023-04-22T09:26:23.423Z,21.50
2023-04-22T09:28:55.392Z,21.00
2023-04-22T09:31:22.672Z,20.70
2023-04-22T09:33:55.720Z,20.30
2023-04-22T09:36:24.087Z,20.20
2023-04-22T09:38:55.670Z,21.20
2023-04-22T09:41:29.315Z,22.20
2023-04-22T09:44:00.246Z,23.30
2023-04-22T09:46:28.703Z,23.50
2023-04-22T09:48:56.913Z,25.00
2023-04-22T09:51:24.426Z,25.30
2023-04-22T09:54:08.575Z,25.30
2023-04-22T09:56:50.467Z,24.80
2023-04-22T09:59:25.355Z,24.20
2023-04-22T10:01:55.539Z,23.20
2023-04-22T10:04:23.372Z,22.80
2023-04-22T10:06:51.000Z,22.90
2023-04-22T10:09:20.107Z,22.90
2023-04-22T10:11:48.168Z,23.00
2023-04-22T10:14:15.180Z,23.00
2023-04-22T10:16:45.188Z,23.00
2023-04-22T10:19:16.643Z,23.00
2023-04-22T10:21:45.683Z,23.70
2023-04-22T10:24:17.896Z,25.00
2023-04-22T10:26:50.665Z,25.70
2023-04-22T10:29:19.768Z,26.50
2023-04-22T10:32:05.670Z,27.00
2023-04-22T10:34:32.592Z,26.90
2023-04-22T10:37:01.651Z,26.20
2023-04-22T10:39:29.523Z,25.90
2023-04-22T10:42:06.896Z,25.60
2023-04-22T10:44:54.027Z,25.20
2023-04-22T10:47:30.866Z,24.80
2023-04-22T10:50:15.134Z,24.90
2023-04-22T10:52:43.728Z,25.50
2023-04-22T10:55:10.645Z,26.80
2023-04-22T10:57:41.164Z,28.30
2023-04-22T11:00:17.222Z,29.40
2023-04-22T11:02:52.346Z,29.70
2023-04-22T11:05:26.725Z,28.90
2023-04-22T11:07:56.258Z,29.00
2023-04-22T11:10:41.678Z,29.40
2023-04-22T11:13:19.423Z,29.20
2023-04-22T11:15:51.299Z,28.70
2023-04-22T11:18:23.638Z,28.40
2023-04-22T11:20:51.708Z,27.40
2023-04-22T11:23:22.079Z,25.80
2023-04-22T11:25:53.567Z,24.40
2023-04-22T11:28:22.754Z,23.60
2023-04-22T11:30:50.000Z,23.10
2023-04-22T11:33:17.120Z,23.00
2023-04-22T11:35:44.189Z,23.40
2023-04-22T11:38:11.054Z,23.60
2023-04-22T11:40:42.031Z,23.10
2023-04-22T11:43:10.938Z,23.10
2023-04-22T11:45:39.276Z,23.90
2023-04-22T11:48:08.002Z,25.00
2023-04-22T11:50:36.778Z,25.20
2023-04-22T11:53:05.354Z,24.80
2023-04-22T11:55:38.401Z,24.30
2023-04-22T11:58:25.781Z,25.00
2023-04-22T12:00:54.129Z,26.40
2023-04-22T12:03:26.708Z,27.60
2023-04-22T12:06:02.282Z,27.50
2023-04-22T12:08:39.746Z,27.00
2023-04-22T12:11:10.474Z,27.60
2023-04-22T12:13:37.127Z,28.10
2023-04-22T12:16:15.644Z,27.60
2023-04-22T12:18:49.797Z,26.70
2023-04-22T12:21:25.110Z,26.00
2023-04-22T12:23:57.605Z,25.10
2023-04-22T12:26:27.279Z,24.30
2023-04-22T12:28:56.216Z,24.10
2023-04-22T12:31:23.032Z,24.40
2023-04-22T12:33:50.200Z,24.70
2023-04-22T12:36:20.816Z,24.80
2023-04-22T12:38:47.827Z,25.00
2023-04-22T12:41:15.873Z,24.60
2023-04-22T12:43:42.805Z,24.00
2023-04-22T12:46:10.119Z,23.50
2023-04-22T12:48:37.527Z,23.10
2023-04-22T12:51:05.150Z,23.10
2023-04-22T12:53:31.965Z,23.10
2023-04-22T12:55:58.840Z,22.90
2023-04-22T12:58:26.288Z,22.80
2023-04-22T13:00:53.081Z,22.60
2023-04-22T13:03:19.957Z,22.50
2023-04-22T13:05:46.727Z,22.50
2023-04-22T13:08:13.497Z,22.20
2023-04-22T13:10:40.244Z,22.00
2023-04-22T13:15:38.760Z,21.90
2023-04-22T13:18:05.624Z,21.90
2023-04-22T13:20:32.263Z,21.90
2023-04-22T13:22:58.942Z,21.60
2023-04-22T13:25:25.564Z,21.50
2023-04-22T13:27:52.231Z,21.30
2023-04-22T13:30:19.913Z,21.30
2023-04-22T13:32:46.534Z,21.20
2023-04-22T13:35:13.168Z,21.10
2023-04-22T13:37:39.915Z,21.00
2023-04-22T13:40:07.221Z,20.90
2023-04-22T13:42:34.238Z,20.90
2023-04-22T13:45:00.988Z,20.90
2023-04-22T13:47:27.599Z,20.90
2023-04-22T13:49:54.218Z,20.90
2023-04-22T13:52:20.858Z,21.00
2023-04-22T13:54:47.479Z,20.90
2023-04-22T13:57:14.095Z,20.80
2023-04-22T13:59:41.565Z,20.50
2023-04-22T14:02:08.640Z,20.40
2023-04-22T14:04:35.458Z,20.20
2023-04-22T14:07:02.586Z,20.10
2023-04-22T14:09:29.292Z,19.90
2023-04-22T14:11:56.765Z,19.80
2023-04-22T14:14:23.347Z,19.80
2023-04-22T14:16:50.181Z,19.70
2023-04-22T14:19:17.016Z,19.50
2023-04-22T14:21:43.776Z,19.30
2023-04-22T14:24:10.526Z,19.10
2023-04-22T14:26:37.142Z,18.90
2023-04-22T14:29:03.922Z,18.70
2023-04-22T14:31:30.733Z,18.60
2023-04-22T14:33:57.502Z,18.50
2023-04-22T14:36:24.185Z,18.50
2023-04-22T14:38:50.919Z,18.40
2023-04-22T14:41:17.581Z,18.40
2023-04-22T14:43:44.226Z,18.30
2023-04-22T14:46:10.865Z,18.30
2023-04-22T14:48:39.248Z,18.30
2023-04-22T14:51:06.214Z,18.20
2023-04-22T14:53:33.724Z,18.20
2023-04-22T14:56:00.536Z,18.10
2023-04-22T14:58:31.227Z,18.00
2023-04-22T15:00:59.659Z,18.00
2023-04-22T15:03:26.658Z,18.00
2023-04-22T15:05:55.394Z,18.00
2023-04-22T15:08:22.279Z,18.10
2023-04-22T15:10:49.127Z,18.10
2023-04-22T15:13:15.839Z,18.00
2023-04-22T15:15:42.897Z,18.00
2023-04-22T15:18:10.620Z,18.10
2023-04-22T15:20:37.392Z,18.20
2023-04-22T15:23:04.165Z,18.30
2023-04-22T15:25:30.936Z,18.30
2023-04-22T15:27:57.948Z,18.40
2023-04-22T15:30:24.883Z,18.60
2023-04-22T15:32:51.565Z,18.60
2023-04-22T15:35:20.054Z,18.80
2023-04-22T15:37:46.735Z,18.90
2023-04-22T15:40:13.350Z,19.10
2023-04-22T15:42:40.017Z,19.20
2023-04-22T15:45:07.304Z,19.20
2023-04-22T15:47:35.977Z,19.10
2023-04-22T15:50:09.224Z,19.00
2023-04-22T15:52:37.706Z,19.00
2023-04-22T15:55:05.674Z,19.00
2023-04-22T15:57:34.737Z,18.90
2023-04-22T16:00:13.165Z,18.80
2023-04-22T16:02:42.302Z,18.80
2023-04-22T16:05:10.303Z,18.80
2023-04-22T16:07:36.945Z,18.70
2023-04-22T16:10:03.912Z,18.70
2023-04-22T16:12:32.764Z,18.70
2023-04-22T16:15:00.814Z,18.70
2023-04-22T16:17:27.515Z,18.70
2023-04-22T16:19:55.133Z,18.70
2023-04-22T16:22:21.957Z,18.50
2023-04-22T16:24:48.740Z,18.40
2023-04-22T16:27:16.933Z,18.40
2023-04-22T16:29:44.044Z,18.30
2023-04-22T16:32:11.536Z,18.20
2023-04-22T16:34:38.519Z,18.20
2023-04-22T16:37:05.870Z,18.10
2023-04-22T16:39:33.083Z,18.00
2023-04-22T16:42:02.264Z,18.00
2023-04-22T16:44:29.073Z,17.90
2023-04-22T16:46:55.917Z,17.90
2023-04-22T16:49:22.634Z,17.90
2023-04-22T16:51:49.498Z,17.80
2023-04-22T16:54:16.264Z,17.70
2023-04-22T16:56:42.856Z,17.70
2023-04-22T16:59:09.489Z,17.60
2023-04-22T17:01:36.314Z,17.60
2023-04-22T17:04:03.100Z,17.50
2023-04-22T17:06:29.786Z,17.50
2023-04-22T17:08:56.393Z,17.50
2023-04-22T17:11:24.052Z,17.40
2023-04-22T17:13:51.377Z,17.40
2023-04-22T17:16:18.207Z,17.30
2023-04-22T17:18:44.984Z,17.30
2023-04-22T17:21:11.644Z,17.30
2023-04-22T17:35:57.485Z,16.90
2023-04-22T17:38:24.049Z,16.70
2023-04-22T17:40:51.700Z,16.60
2023-04-22T17:43:18.303Z,16.60
2023-04-22T17:45:44.903Z,16.40
2023-04-22T17:48:11.615Z,16.40
2023-04-22T17:50:38.232Z,16.30
2023-04-22T17:53:04.908Z,16.30
2023-04-22T17:55:35.018Z,16.30
2023-04-22T17:58:05.510Z,16.30
2023-04-22T18:00:33.570Z,16.30
2023-04-22T18:03:00.554Z,16.20
2023-04-22T18:05:27.332Z,16.20
2023-04-22T18:08:00.647Z,16.20
2023-04-22T18:10:27.537Z,16.20
2023-04-22T18:12:54.834Z,16.10
2023-04-22T18:15:23.439Z,16.10
2023-04-22T18:17:50.894Z,16.10
2023-04-22T18:20:19.333Z,16.00
2023-04-22T18:22:48.357Z,16.00
2023-04-22T18:25:15.320Z,16.00
2023-04-22T18:27:42.026Z,15.90
2023-04-22T18:30:09.018Z,15.90
2023-04-22T18:32:37.029Z,15.90
2023-04-22T18:35:04.654Z,15.90
2023-04-22T18:37:32.551Z,15.80
2023-04-22T18:39:59.148Z,15.80
2023-04-22T18:42:25.801Z,15.70
2023-04-22T18:44:52.489Z,15.60
2023-04-22T18:47:19.070Z,15.50
2023-04-22T18:49:45.707Z,15.50
2023-04-22T18:52:12.455Z,15.40
2023-04-22T18:54:39.600Z,15.30
2023-04-22T18:57:06.832Z,15.30
2023-04-22T18:59:33.531Z,15.20
2023-04-22T19:02:01.317Z,15.20
2023-04-22T19:04:27.996Z,15.10
2023-04-22T19:06:56.855Z,15.10
2023-04-22T19:09:24.479Z,15.10
2023-04-22T19:11:51.090Z,15.10
2023-04-22T19:14:17.686Z,15.00
2023-04-22T19:16:44.363Z,15.00
2023-04-22T19:19:12.035Z,15.00
2023-04-22T19:21:39.487Z,14.90
2023-04-22T19:24:06.575Z,14.90
2023-04-22T19:26:33.619Z,14.90
2023-04-22T19:29:00.328Z,14.90
2023-04-22T19:31:28.724Z,14.90
2023-04-22T19:33:55.682Z,14.80
2023-04-22T19:36:23.478Z,14.80
2023-04-22T19:38:50.163Z,14.70
2023-04-22T19:41:16.798Z,14.70
2023-04-22T19:43:43.387Z,14.70
2023-04-22T19:46:10.279Z,14.70
2023-04-22T19:48:37.432Z,14.70
2023-04-22T19:51:05.470Z,14.60
2023-04-22T19:53:32.951Z,14.60
2023-04-22T19:55:59.785Z,14.60
2023-04-22T19:58:28.245Z,14.60
2023-04-22T20:00:55.329Z,14.60
2023-04-22T20:03:22.707Z,14.60
2023-04-22T20:05:50.248Z,14.60
2023-04-22T20:08:19.597Z,14.50
2023-04-22T20:10:49.216Z,14.50
2023-04-22T20:13:16.509Z,14.50
2023-04-22T20:15:43.306Z,14.50
2023-04-22T20:18:10.302Z,14.50
2023-04-22T20:20:37.147Z,14.40
2023-04-22T20:23:10.135Z,14.40
2023-04-22T20:25:41.920Z,14.40
2023-04-22T20:28:08.744Z,14.30
2023-04-22T20:30:36.098Z,14.30
2023-04-22T20:33:03.038Z,14.30
2023-04-22T20:35:31.985Z,14.40
2023-04-22T20:38:00.145Z,14.40
2023-04-22T20:40:28.817Z,14.40
2023-04-22T20:42:57.402Z,14.40
2023-04-22T20:45:24.429Z,14.40
2023-04-22T20:47:51.353Z,14.40
2023-04-22T20:50:18.642Z,14.40
2023-04-22T20:52:45.302Z,14.40
2023-04-22T20:55:11.921Z,14.40
2023-04-22T20:57:38.602Z,14.40
2023-04-22T21:00:07.380Z,14.30
2023-04-22T21:02:35.399Z,14.30
2023-04-22T21:05:03.893Z,14.30
2023-04-22T21:07:30.909Z,14.30
2023-04-22T21:09:58.056Z,14.30
2023-04-22T21:12:25.440Z,14.30
2023-04-22T21:14:52.382Z,14.30
2023-04-22T21:17:27.390Z,14.30
2023-04-22T21:19:57.499Z,14.30
2023-04-22T21:22:25.226Z,14.20
2023-04-22T21:24:52.604Z,14.20
2023-04-22T21:27:21.392Z,14.20
2023-04-22T21:29:49.253Z,14.20
2023-04-22T21:32:16.678Z,14.10
2023-04-22T21:34:44.269Z,14.10
2023-04-22T21:37:14.519Z,14.10
2023-04-22T21:39:41.165Z,14.10
2023-04-22T21:42:08.671Z,14.00
2023-04-22T21:44:36.928Z,14.00
2023-04-22T21:47:04.423Z,14.00
2023-04-22T21:49:31.107Z,14.00
2023-04-22T21:51:58.618Z,14.00
2023-04-22T21:54:25.367Z,13.90
2023-04-22T21:56:52.071Z,13.90
2023-04-22T21:59:18.718Z,13.90
2023-04-22T22:01:46.136Z,13.90
2023-04-22T22:04:15.712Z,13.90
2023-04-22T22:06:43.387Z,13.80
2023-04-22T22:09:11.568Z,13.80
2023-04-22T22:11:38.253Z,13.80
2023-04-22T22:14:05.126Z,13.70
2023-04-22T22:16:32.009Z,13.70
2023-04-22T22:18:58.893Z,13.60
2023-04-22T22:21:25.517Z,13.60
2023-04-22T22:23:52.189Z,13.60
2023-04-22T22:26:19.410Z,13.60
2023-04-22T22:28:46.352Z,13.60
2023-04-22T22:31:12.984Z,13.60
2023-04-22T22:33:39.650Z,13.50
2023-04-22T22:36:06.431Z,13.50
2023-04-22T22:38:33.043Z,13.60
2023-04-22T22:40:59.765Z,13.60
2023-04-22T22:43:26.865Z,13.60
2023-04-22T22:45:53.791Z,13.50
2023-04-22T22:48:20.576Z,13.50
2023-04-22T22:50:47.221Z,13.50
2023-04-22T22:53:13.863Z,13.50
2023-04-22T22:55:40.533Z,13.50
2023-04-22T22:58:07.152Z,13.30
2023-04-22T23:00:33.831Z,13.20
2023-04-22T23:03:00.695Z,13.10
2023-04-22T23:05:27.859Z,13.10
2023-04-22T23:07:54.539Z,12.90
2023-04-22T23:10:21.253Z,12.90
2023-04-22T23:12:47.853Z,12.90
2023-04-22T23:15:14.449Z,12.80
2023-04-22T23:17:41.149Z,12.80
2023-04-22T23:20:09.897Z,12.70
2023-04-22T23:22:41.845Z,12.70
2023-04-22T23:25:09.431Z,12.60
2023-04-22T23:27:36.393Z,12.60
2023-04-22T23:30:04.538Z,12.60
2023-04-22T23:32:33.040Z,12.50
2023-04-22T23:35:01.761Z,12.50
2023-04-22T23:37:29.432Z,12.40
2023-04-22T23:39:56.209Z,12.40
2023-04-22T23:42:22.907Z,12.40
2023-04-22T23:44:49.768Z,12.40
2023-04-22T23:47:16.483Z,12.40
2023-04-22T23:49:43.366Z,12.40
2023-04-22T23:52:10.921Z,12.40
2023-04-22T23:54:37.813Z,12.40
2023-04-22T23:57:04.760Z,12.30
2023-04-22T23:59:31.674Z,12.20
